Time;durP1;ratioP1;P1;durP2;ratioP2;P2;SDS_P1;SDS_P2;PMS_P1;PMS_P2;Temp;Humidity;BMP_temperature;BMP_pressure;BME280_temperature;BME280_humidity;BME280_pressure;Samples;Min_cycle;Max_cycle;Signal;HPM_P1;HPM_P2
2022/10/09 00:01:20;;;;;;;13.80;8.23;;;9.40;99.90;;;;;;5034355;28;20539;-75
2022/10/09 00:03:47;;;;;;;14.95;8.02;;;9.30;99.90;;;;;;5074995;28;20048;-75
2022/10/09 00:06:22;;;;;;;13.27;7.72;;;9.30;99.90;;;;;;5048788;28;20399;-74
2022/10/09 00:08:49;;;;;;;12.80;7.00;;;9.20;99.90;;;;;;5060650;28;20049;-75
2022/10/09 00:11:21;;;;;;;14.63;8.15;;;9.20;99.90;;;;;;5059626;28;20093;-74
2022/10/09 00:13:48;;;;;;;11.02;7.10;;;9.10;99.90;;;;;;5043558;28;20037;-75
2022/10/09 00:16:15;;;;;;;14.93;8.63;;;9.10;99.90;;;;;;5039827;28;20054;-75
2022/10/09 00:18:42;;;;;;;14.57;8.73;;;9.00;99.90;;;;;;5028619;28;20138;-75
2022/10/09 00:21:15;;;;;;;13.88;8.68;;;9.00;99.90;;;;;;5041887;28;20407;-75
2022/10/09 00:23:41;;;;;;;13.75;8.65;;;9.00;99.90;;;;;;5037522;28;20044;-74
2022/10/09 00:26:07;;;;;;;16.15;8.20;;;8.90;99.90;;;;;;5049543;28;20046;-75
2022/10/09 00:28:33;;;;;;;14.73;8.13;;;8.90;99.90;;;;;;5044936;28;20511;-75
2022/10/09 00:31:07;;;;;;;23.40;12.13;;;8.90;99.90;;;;;;5032672;28;20040;-75
2022/10/09 00:33:34;;;;;;;13.73;8.80;;;8.90;99.90;;;;;;5045226;28;20056;-74
2022/10/09 00:36:26;;;;;;;11.30;8.30;;;8.80;99.90;;;;;;5042234;28;20520;-77
2022/10/09 00:38:54;;;;;;;12.18;8.48;;;8.80;99.90;;;;;;5044186;28;20141;-77
2022/10/09 00:41:23;;;;;;;11.38;7.57;;;8.70;99.90;;;;;;5042763;28;20403;-77
2022/10/09 00:44:00;;;;;;;17.05;10.10;;;8.70;99.90;;;;;;5061087;28;20119;-77
2022/10/09 00:46:50;;;;;;;11.50;7.82;;;8.60;99.90;;;;;;5049850;28;20045;-74
2022/10/09 00:49:28;;;;;;;11.50;7.47;;;8.60;99.90;;;;;;5052281;28;20083;-76
2022/10/09 00:52:01;;;;;;;19.25;9.70;;;8.60;99.90;;;;;;5037679;28;20120;-76
2022/10/09 00:54:33;;;;;;;13.90;9.00;;;8.50;99.90;;;;;;5057452;28;20059;-76
2022/10/09 00:56:59;;;;;;;19.60;10.13;;;8.50;99.90;;;;;;5053260;28;20064;-76
2022/10/09 00:59:26;;;;;;;12.57;7.72;;;8.40;99.90;;;;;;5060918;28;20131;-76
2022/10/09 01:01:52;;;;;;;12.82;7.22;;;8.40;99.90;;;;;;5039824;28;20376;-76
2022/10/09 01:04:18;;;;;;;20.50;10.30;;;8.30;99.90;;;;;;5054966;28;20048;-76
2022/10/09 01:06:56;;;;;;;11.15;7.22;;;8.40;99.90;;;;;;5054292;28;20680;-76
2022/10/09 01:09:43;;;;;;;11.48;7.25;;;8.30;99.90;;;;;;5060090;28;20057;-76
2022/10/09 01:12:35;;;;;;;14.80;9.02;;;8.20;99.90;;;;;;5055481;28;20067;-76
2022/10/09 01:15:16;;;;;;;10.68;6.97;;;8.20;99.90;;;;;;5035871;28;20075;-76
2022/10/09 01:17:51;;;;;;;11.98;8.27;;;8.20;99.90;;;;;;5062808;28;20037;-76
2022/10/09 01:20:25;;;;;;;13.85;7.53;;;8.10;99.90;;;;;;5037164;28;20041;-76
2022/10/09 01:22:54;;;;;;;8.98;6.93;;;8.10;99.90;;;;;;5047417;28;20062;-76
2022/10/09 01:25:33;;;;;;;10.55;7.57;;;8.10;99.90;;;;;;5050020;28;20148;-76
2022/10/09 01:28:05;;;;;;;11.93;7.25;;;8.10;99.90;;;;;;5066359;28;20338;-76
2022/10/09 01:30:33;;;;;;;12.10;7.75;;;8.00;99.90;;;;;;5032962;28;20048;-75
2022/10/09 01:33:03;;;;;;;11.77;7.53;;;8.00;99.90;;;;;;5048387;28;20109;-75
2022/10/09 01:35:29;;;;;;;12.60;7.40;;;8.00;99.90;;;;;;5061558;28;20127;-75
2022/10/09 01:37:56;;;;;;;11.10;7.88;;;8.00;99.90;;;;;;5047687;28;20060;-75
2022/10/09 01:40:24;;;;;;;13.32;10.20;;;8.00;99.90;;;;;;5048510;28;20080;-74
2022/10/09 01:42:50;;;;;;;15.52;7.97;;;7.90;99.90;;;;;;5039326;28;20045;-74
2022/10/09 01:45:16;;;;;;;11.68;6.65;;;7.90;99.90;;;;;;5048432;28;20530;-75
2022/10/09 01:47:42;;;;;;;12.50;6.80;;;7.90;99.90;;;;;;5056115;28;20052;-75
2022/10/09 01:50:14;;;;;;;9.80;6.82;;;7.90;99.90;;;;;;5060016;28;20040;-74
2022/10/09 01:52:52;;;;;;;10.35;6.43;;;7.90;99.90;;;;;;5060476;28;20495;-75
2022/10/09 01:55:17;;;;;;;10.65;5.85;;;7.80;99.90;;;;;;5068333;28;20051;-75
2022/10/09 01:57:54;;;;;;;10.43;7.35;;;7.70;99.90;;;;;;5034017;28;20052;-75
2022/10/09 02:00:21;;;;;;;11.48;6.65;;;7.60;99.90;;;;;;5040929;28;20049;-74
2022/10/09 02:02:48;;;;;;;12.55;6.95;;;7.60;99.90;;;;;;5037939;28;20149;-75
2022/10/09 02:05:22;;;;;;;11.15;6.78;;;7.50;99.90;;;;;;5059977;28;20150;-74
2022/10/09 02:07:48;;;;;;;10.32;6.50;;;7.50;99.90;;;;;;5062691;28;20147;-75
2022/10/09 02:10:16;;;;;;;12.35;7.85;;;7.40;99.90;;;;;;5022115;28;20073;-75
2022/10/09 02:12:48;;;;;;;10.70;6.28;;;7.40;99.90;;;;;;5059403;28;20322;-74
2022/10/09 02:15:15;;;;;;;10.10;7.00;;;7.40;99.90;;;;;;5041638;28;20491;-75
2022/10/09 02:17:45;;;;;;;10.82;7.05;;;7.40;99.90;;;;;;5044645;28;20044;-74
2022/10/09 02:20:23;;;;;;;9.07;6.68;;;7.40;99.90;;;;;;5043769;28;20040;-75
2022/10/09 02:22:50;;;;;;;9.50;6.72;;;7.40;99.90;;;;;;5057161;28;20048;-74
2022/10/09 02:25:17;;;;;;;12.98;7.22;;;7.40;99.90;;;;;;5046116;28;20531;-74
2022/10/09 02:27:44;;;;;;;9.82;7.38;;;7.40;99.90;;;;;;5055967;28;20045;-74
2022/10/09 02:30:12;;;;;;;11.10;7.68;;;7.40;99.90;;;;;;5040416;28;20047;-75
2022/10/09 02:32:38;;;;;;;8.80;6.82;;;7.30;99.90;;;;;;5070018;28;20124;-74
2022/10/09 02:35:04;;;;;;;9.65;6.70;;;7.30;99.90;;;;;;5041703;28;20131;-75
2022/10/09 02:37:29;;;;;;;8.55;7.07;;;7.30;99.90;;;;;;5046393;28;20044;-73
2022/10/09 02:39:55;;;;;;;12.13;7.03;;;7.30;99.90;;;;;;5045918;28;20049;-75
2022/10/09 02:42:21;;;;;;;11.00;7.40;;;7.20;99.90;;;;;;5027245;28;20689;-75
2022/10/09 02:44:47;;;;;;;12.93;7.30;;;7.20;99.90;;;;;;5012030;28;20049;-74
2022/10/09 02:47:12;;;;;;;12.50;6.38;;;7.20;99.90;;;;;;5044596;28;20037;-75
2022/10/09 02:49:38;;;;;;;9.35;6.20;;;7.20;99.90;;;;;;5063801;28;20676;-74
2022/10/09 02:52:04;;;;;;;11.57;7.13;;;7.20;99.90;;;;;;5059443;28;20075;-74
2022/10/09 02:54:30;;;;;;;11.57;6.38;;;7.10;99.90;;;;;;5027809;28;20079;-74
2022/10/09 02:56:56;;;;;;;12.00;7.03;;;7.10;99.90;;;;;;5062805;28;20044;-74
2022/10/09 02:59:22;;;;;;;10.57;7.13;;;7.00;99.90;;;;;;5037962;28;20542;-75
2022/10/09 03:01:47;;;;;;;9.98;7.00;;;7.00;99.90;;;;;;5032330;28;20477;-74
2022/10/09 03:04:13;;;;;;;10.43;7.45;;;7.00;99.90;;;;;;5060736;28;20071;-75
2022/10/09 03:06:39;;;;;;;10.73;7.60;;;7.00;99.90;;;;;;5066319;28;20121;-75
2022/10/09 03:09:05;;;;;;;11.88;7.40;;;7.00;99.90;;;;;;5048566;28;20070;-75
2022/10/09 03:11:31;;;;;;;15.25;8.32;;;6.90;99.90;;;;;;5026131;28;20417;-75
2022/10/09 03:13:56;;;;;;;13.23;8.35;;;7.00;99.90;;;;;;5046550;28;20045;-74
2022/10/09 03:16:24;;;;;;;13.63;9.60;;;7.00;99.90;;;;;;5048378;28;20048;-74
2022/10/09 03:18:51;;;;;;;12.93;9.23;;;6.90;99.90;;;;;;5059955;28;20056;-75
2022/10/09 03:21:22;;;;;;;12.50;8.55;;;6.90;99.90;;;;;;5046521;28;20052;-75
2022/10/09 03:23:48;;;;;;;12.32;8.32;;;6.90;99.90;;;;;;5063696;28;20048;-74
2022/10/09 03:26:17;;;;;;;12.82;8.45;;;6.80;99.90;;;;;;5063585;28;20059;-74
2022/10/09 03:28:46;;;;;;;15.27;8.88;;;6.70;99.90;;;;;;5042348;28;20101;-74
2022/10/09 03:31:13;;;;;;;11.05;8.70;;;6.70;99.90;;;;;;5046757;28;20060;-74
2022/10/09 03:33:39;;;;;;;11.55;7.68;;;6.60;99.90;;;;;;5060631;28;20040;-75
2022/10/09 03:36:05;;;;;;;11.38;8.13;;;6.60;99.90;;;;;;5064447;28;20041;-74
2022/10/09 03:38:31;;;;;;;10.95;7.25;;;6.60;99.90;;;;;;5041366;28;20047;-74
2022/10/09 03:40:59;;;;;;;13.15;10.35;;;6.60;99.90;;;;;;5059244;28;20052;-74
2022/10/09 03:43:25;;;;;;;11.40;8.35;;;6.60;99.90;;;;;;5041163;28;20115;-74
2022/10/09 03:45:51;;;;;;;12.75;7.70;;;6.60;99.90;;;;;;5064028;28;20048;-74
2022/10/09 03:48:17;;;;;;;18.80;13.05;;;6.60;99.90;;;;;;5059932;28;20079;-74
2022/10/09 03:50:42;;;;;;;11.40;8.25;;;6.50;99.90;;;;;;5047163;28;20076;-74
2022/10/09 03:53:10;;;;;;;9.35;7.97;;;6.50;99.90;;;;;;5028219;28;20037;-77
2022/10/09 03:55:36;;;;;;;12.57;9.85;;;6.50;99.90;;;;;;5047851;28;20127;-74
2022/10/09 03:58:02;;;;;;;11.23;8.80;;;6.50;99.90;;;;;;5060729;28;20064;-74
2022/10/09 04:00:31;;;;;;;12.18;8.88;;;6.50;99.90;;;;;;5060849;28;20044;-74
2022/10/09 04:02:57;;;;;;;12.55;9.02;;;6.60;99.90;;;;;;5043136;28;20530;-74
2022/10/09 04:05:23;;;;;;;16.13;10.35;;;6.60;99.90;;;;;;5060782;28;20033;-74
2022/10/09 04:07:49;;;;;;;13.35;9.98;;;6.60;99.90;;;;;;5056368;28;20045;-75
2022/10/09 04:10:15;;;;;;;11.88;9.50;;;6.60;99.90;;;;;;5060638;28;20083;-74
2022/10/09 04:12:41;;;;;;;13.55;9.65;;;6.60;99.90;;;;;;5071980;28;20283;-74
2022/10/09 04:15:07;;;;;;;12.25;9.50;;;6.60;99.90;;;;;;5064331;28;20449;-75
2022/10/09 04:17:33;;;;;;;16.23;8.85;;;6.60;99.90;;;;;;5038092;28;20041;-74
2022/10/09 04:19:59;;;;;;;9.95;8.45;;;6.60;99.90;;;;;;5024563;28;20664;-74
2022/10/09 04:22:25;;;;;;;12.40;7.60;;;6.40;99.90;;;;;;5050031;28;21025;-74
2022/10/09 04:24:50;;;;;;;10.77;8.40;;;6.40;99.90;;;;;;5054980;28;20047;-74
2022/10/09 04:27:16;;;;;;;10.68;7.47;;;6.40;99.90;;;;;;5056588;28;20106;-74
2022/10/09 04:29:42;;;;;;;11.65;7.75;;;6.40;99.90;;;;;;5042805;28;20470;-74
2022/10/09 04:32:08;;;;;;;10.80;7.65;;;6.40;99.90;;;;;;5073647;28;20040;-74
2022/10/09 04:34:34;;;;;;;13.43;8.20;;;6.40;99.90;;;;;;5036642;28;20075;-74
2022/10/09 04:37:00;;;;;;;12.40;8.55;;;6.40;99.90;;;;;;5039976;28;20032;-74
2022/10/09 04:39:26;;;;;;;12.27;9.02;;;6.40;99.90;;;;;;5065492;28;20040;-74
2022/10/09 04:41:52;;;;;;;13.35;9.10;;;6.30;99.90;;;;;;5048231;28;20056;-74
2022/10/09 04:44:18;;;;;;;11.98;8.90;;;6.30;99.90;;;;;;5070167;28;20642;-74
2022/10/09 04:46:43;;;;;;;11.15;7.85;;;6.30;99.90;;;;;;5040497;28;20040;-74
2022/10/09 04:49:13;;;;;;;14.52;8.80;;;6.30;99.90;;;;;;5043529;28;20040;-74
2022/10/09 04:51:39;;;;;;;10.15;8.25;;;6.20;99.90;;;;;;5058158;28;20423;-74
2022/10/09 04:54:06;;;;;;;11.23;8.05;;;6.20;99.90;;;;;;5058926;28;20131;-74
2022/10/09 04:56:32;;;;;;;12.02;8.18;;;6.20;99.90;;;;;;5044538;28;20032;-77
2022/10/09 04:59:00;;;;;;;10.07;9.05;;;6.20;99.90;;;;;;5060297;28;20044;-74
2022/10/09 05:01:30;;;;;;;10.98;9.10;;;6.20;99.90;;;;;;5027232;28;20047;-74
2022/10/09 05:03:56;;;;;;;12.77;8.80;;;6.30;99.90;;;;;;5075682;28;20442;-74
2022/10/09 05:06:24;;;;;;;13.13;9.52;;;6.30;99.90;;;;;;5064846;28;20053;-74
2022/10/09 05:08:53;;;;;;;12.32;9.10;;;6.30;99.90;;;;;;5042706;28;20087;-74
2022/10/09 05:11:21;;;;;;;12.20;10.50;;;6.30;99.90;;;;;;5029397;28;20255;-74
2022/10/09 05:13:56;;;;;;;10.05;8.82;;;6.30;99.90;;;;;;5051046;28;20037;-74
2022/10/09 05:16:25;;;;;;;14.25;10.10;;;6.40;99.90;;;;;;5060204;28;20319;-74
2022/10/09 05:18:53;;;;;;;11.77;8.93;;;6.40;99.90;;;;;;5054887;28;20415;-74
2022/10/09 05:21:20;;;;;;;16.40;11.52;;;6.30;99.90;;;;;;5052835;28;20087;-74
2022/10/09 05:23:46;;;;;;;12.38;10.95;;;6.40;99.90;;;;;;5048282;28;20124;-74
2022/10/09 05:26:18;;;;;;;15.10;10.65;;;6.30;99.90;;;;;;5053104;28;20098;-74
2022/10/09 05:28:45;;;;;;;12.77;9.27;;;6.30;99.90;;;;;;5049775;28;20410;-74
2022/10/09 05:31:24;;;;;;;11.93;9.00;;;6.30;99.90;;;;;;5029925;28;20119;-74
2022/10/09 05:33:50;;;;;;;12.85;10.45;;;6.30;99.90;;;;;;5064189;28;20055;-74
2022/10/09 05:36:16;;;;;;;10.45;8.63;;;6.30;99.90;;;;;;5060314;28;20127;-71
2022/10/09 05:38:42;;;;;;;15.45;10.48;;;6.20;99.90;;;;;;5056657;28;21013;-71
2022/10/09 05:41:11;;;;;;;11.88;9.63;;;6.20;99.90;;;;;;5057056;28;20125;-71
2022/10/09 05:43:39;;;;;;;11.00;9.25;;;6.20;99.90;;;;;;5070568;28;20040;-71
2022/10/09 05:46:16;;;;;;;11.77;10.10;;;6.20;99.90;;;;;;5052278;28;20119;-71
2022/10/09 05:48:43;;;;;;;11.82;9.68;;;6.20;99.90;;;;;;5055416;28;20040;-71
2022/10/09 05:51:22;;;;;;;13.90;9.90;;;6.20;99.90;;;;;;5043656;28;20052;-72
2022/10/09 05:53:48;;;;;;;10.95;8.43;;;6.20;99.90;;;;;;5072571;28;20044;-71
2022/10/09 05:56:18;;;;;;;12.73;9.80;;;6.20;99.90;;;;;;5043257;28;20387;-72
2022/10/09 05:58:59;;;;;;;11.57;10.38;;;6.10;99.90;;;;;;5049574;28;20048;-71
2022/10/09 06:01:29;;;;;;;;;;;6.10;99.90;;;;;;5059137;28;20053;-71
2022/10/09 06:03:56;;;;;;;18.20;15.75;;;6.10;99.90;;;;;;5057282;28;19924;-70
2022/10/09 06:06:25;;;;;;;10.75;9.65;;;6.00;99.90;;;;;;5059573;28;20114;-71
2022/10/09 06:08:51;;;;;;;11.27;9.63;;;6.10;99.90;;;;;;5055432;28;20399;-71
2022/10/09 06:11:20;;;;;;;12.73;11.43;;;6.10;99.90;;;;;;5065484;28;20055;-71
2022/10/09 06:13:46;;;;;;;14.27;11.70;;;6.10;99.90;;;;;;5043237;28;20044;-71
2022/10/09 06:16:14;;;;;;;15.00;12.27;;;6.10;99.90;;;;;;5073970;28;20044;-71
2022/10/09 06:18:42;;;;;;;13.55;11.50;;;6.10;99.90;;;;;;5055488;28;20033;-71
2022/10/09 06:21:08;;;;;;;16.20;11.85;;;6.10;99.90;;;;;;5035703;28;20143;-71
2022/10/09 06:23:34;;;;;;;26.52;18.75;;;6.10;99.90;;;;;;5048992;28;20507;-71
2022/10/09 06:26:04;;;;;;;16.73;14.85;;;6.10;99.90;;;;;;5049949;28;20502;-71
2022/10/09 06:28:31;;;;;;;21.63;14.32;;;6.10;99.90;;;;;;5030012;28;20395;-71
2022/10/09 06:31:05;;;;;;;22.27;16.75;;;6.10;99.90;;;;;;5045934;28;20526;-71
2022/10/09 06:33:33;;;;;;;16.52;13.35;;;6.10;99.90;;;;;;5051419;28;20080;-72
2022/10/09 06:36:08;;;;;;;12.93;11.18;;;6.20;99.90;;;;;;5038840;28;20051;-72
2022/10/09 06:38:35;;;;;;;25.55;20.38;;;6.20;99.90;;;;;;5041396;28;20045;-71
2022/10/09 06:41:07;;;;;;;15.88;14.27;;;6.30;99.90;;;;;;5061327;28;20058;-74
2022/10/09 06:43:33;;;;;;;24.00;20.70;;;6.30;99.90;;;;;;5055115;28;20073;-71
2022/10/09 06:46:01;;;;;;;16.95;15.02;;;6.40;99.90;;;;;;5033647;28;20130;-71
2022/10/09 06:48:34;;;;;;;15.73;14.02;;;6.40;99.90;;;;;;5059852;28;20044;-71
2022/10/09 06:51:09;;;;;;;21.17;18.40;;;6.50;99.90;;;;;;5057484;28;20511;-71
2022/10/09 06:53:36;;;;;;;19.10;16.95;;;6.50;99.90;;;;;;5055878;28;20040;-71
2022/10/09 06:56:03;;;;;;;17.20;14.60;;;6.60;99.90;;;;;;5052507;28;20742;-71
2022/10/09 06:58:29;;;;;;;24.65;21.50;;;6.60;99.90;;;;;;5036970;28;20060;-71
2022/10/09 07:01:14;;;;;;;17.77;15.75;;;6.60;99.90;;;;;;5039447;28;20061;-71
2022/10/09 07:03:41;;;;;;;18.40;16.05;;;6.70;99.90;;;;;;5037822;28;20036;-71
2022/10/09 07:06:11;;;;;;;21.90;18.17;;;6.80;99.90;;;;;;5053136;28;20048;-71
2022/10/09 07:08:38;;;;;;;;;;;6.80;99.90;;;;;;5053080;28;20138;-71
2022/10/09 07:11:21;;;;;;;22.52;17.23;;;6.90;99.90;;;;;;5052500;28;19932;-71
2022/10/09 07:13:48;;;;;;;19.60;15.95;;;6.90;99.90;;;;;;5040301;28;20052;-71
2022/10/09 07:16:19;;;;;;;24.92;22.20;;;6.90;99.90;;;;;;5054373;28;20056;-71
2022/10/09 07:18:45;;;;;;;26.85;23.15;;;7.10;99.90;;;;;;5059760;28;20045;-71
2022/10/09 07:21:11;;;;;;;19.85;16.80;;;7.10;99.90;;;;;;5039547;28;20435;-71
2022/10/09 07:23:37;;;;;;;20.77;17.17;;;7.10;99.90;;;;;;5065851;28;20060;-71
2022/10/09 07:26:10;;;;;;;21.58;19.08;;;7.10;99.90;;;;;;5040392;28;20045;-71
2022/10/09 07:28:35;;;;;;;21.17;19.10;;;7.20;99.90;;;;;;5055308;28;20055;-71
2022/10/09 07:31:03;;;;;;;20.92;17.05;;;7.20;99.90;;;;;;5053953;28;20068;-71
2022/10/09 07:33:32;;;;;;;21.80;17.02;;;7.30;99.90;;;;;;5062050;28;20071;-71
2022/10/09 07:35:59;;;;;;;20.55;17.52;;;7.40;99.90;;;;;;5057310;28;20446;-71
2022/10/09 07:38:26;;;;;;;22.08;18.73;;;7.40;99.90;;;;;;5060862;28;20559;-71
2022/10/09 07:40:52;;;;;;;21.73;17.17;;;7.50;99.90;;;;;;5040695;28;20121;-71
2022/10/09 07:43:19;;;;;;;17.58;15.77;;;7.50;99.90;;;;;;5075743;28;20105;-71
2022/10/09 07:45:46;;;;;;;19.08;16.48;;;7.60;99.90;;;;;;5043223;28;20044;-71
2022/10/09 07:48:12;;;;;;;18.25;14.90;;;7.80;99.90;;;;;;5079728;28;20053;-71
2022/10/09 07:50:38;;;;;;;20.83;15.00;;;7.90;99.90;;;;;;5063696;28;20410;-71
2022/10/09 07:53:04;;;;;;;19.45;15.52;;;8.10;99.90;;;;;;5044786;28;20053;-71
2022/10/09 07:55:30;;;;;;;17.77;14.70;;;8.30;99.90;;;;;;5037684;28;20052;-71
2022/10/09 07:57:56;;;;;;;15.63;13.95;;;8.50;99.90;;;;;;5065003;28;20109;-72
2022/10/09 08:00:22;;;;;;;15.00;13.10;;;8.70;99.90;;;;;;5052294;28;20049;-71
2022/10/09 08:02:47;;;;;;;12.75;10.73;;;9.00;99.90;;;;;;5044944;28;20556;-71
2022/10/09 08:05:13;;;;;;;11.93;10.73;;;9.30;99.90;;;;;;5041797;28;20041;-71
2022/10/09 08:07:39;;;;;;;13.73;10.60;;;9.60;99.90;;;;;;5067630;28;20411;-71
2022/10/09 08:10:05;;;;;;;14.43;10.45;;;9.80;99.90;;;;;;5039595;28;20462;-71
2022/10/09 08:12:31;;;;;;;11.57;9.82;;;9.90;99.90;;;;;;5051411;28;20124;-71
2022/10/09 08:14:56;;;;;;;14.02;10.88;;;10.10;99.90;;;;;;5036862;28;20202;-71
2022/10/09 08:17:22;;;;;;;11.02;9.00;;;10.30;99.90;;;;;;5052283;28;20055;-71
2022/10/09 08:19:48;;;;;;;10.45;8.07;;;10.40;99.90;;;;;;5039068;28;20094;-72
2022/10/09 08:22:14;;;;;;;14.10;9.05;;;10.60;99.90;;;;;;5039977;28;20052;-75
2022/10/09 08:24:39;;;;;;;11.02;9.40;;;10.70;99.90;;;;;;5034373;28;20041;-77
2022/10/09 08:27:05;;;;;;;12.10;9.43;;;10.80;99.90;;;;;;5053289;28;20051;-77
2022/10/09 08:29:32;;;;;;;11.85;8.70;;;11.00;99.90;;;;;;5034842;28;20047;-77
2022/10/09 08:32:01;;;;;;;12.30;8.38;;;11.10;99.90;;;;;;5041403;28;20048;-76
2022/10/09 08:34:27;;;;;;;10.07;8.68;;;11.30;99.90;;;;;;5051358;28;20057;-76
2022/10/09 08:36:52;;;;;;;10.60;9.35;;;11.30;99.90;;;;;;5049125;28;20096;-77
2022/10/09 08:39:18;;;;;;;11.45;8.75;;;11.40;99.90;;;;;;5054197;28;20052;-76
2022/10/09 08:41:50;;;;;;;10.02;8.02;;;11.50;99.90;;;;;;5037832;28;20040;-77
2022/10/09 08:44:21;;;;;;;11.05;8.18;;;11.60;99.90;;;;;;5051554;28;20045;-76
2022/10/09 08:47:02;;;;;;;11.23;9.25;;;11.70;99.90;;;;;;5063450;28;20486;-77
2022/10/09 08:49:35;;;;;;;11.73;8.07;;;11.80;99.90;;;;;;5031378;28;20044;-77
2022/10/09 08:52:20;;;;;;;10.77;7.88;;;11.90;99.90;;;;;;5072347;28;20155;-77
2022/10/09 08:54:46;;;;;;;10.63;8.13;;;12.00;99.90;;;;;;5049452;28;20053;-77
2022/10/09 08:57:16;;;;;;;11.30;8.05;;;12.10;99.90;;;;;;5043113;28;20056;-77
2022/10/09 08:59:43;;;;;;;13.82;9.18;;;12.00;99.90;;;;;;5049334;28;20048;-77
2022/10/09 09:02:23;;;;;;;11.60;8.40;;;12.00;99.90;;;;;;5031711;28;20052;-77
2022/10/09 09:05:02;;;;;;;11.98;9.18;;;12.00;99.90;;;;;;5047319;28;20048;-76
2022/10/09 09:07:38;;;;;;;11.23;8.77;;;12.10;99.90;;;;;;5049483;28;20037;-77
2022/10/09 09:10:22;;;;;;;11.48;8.60;;;12.20;99.90;;;;;;5046528;28;20102;-77
2022/10/09 09:13:10;;;;;;;14.13;9.07;;;12.20;99.90;;;;;;5036152;28;20041;-77
2022/10/09 09:15:49;;;;;;;13.98;8.55;;;12.30;99.90;;;;;;5040968;28;20068;-77
2022/10/09 09:18:40;;;;;;;10.95;8.63;;;12.40;99.90;;;;;;5038060;28;20491;-77
2022/10/09 09:21:24;;;;;;;14.40;8.82;;;12.50;99.90;;;;;;5055287;28;20435;-77
2022/10/09 09:23:50;;;;;;;13.70;10.05;;;12.60;99.90;;;;;;5048976;28;20053;-77
2022/10/09 09:26:19;;;;;;;16.02;8.80;;;12.60;99.90;;;;;;5054357;28;20052;-77
2022/10/09 09:28:49;;;;;;;12.67;8.37;;;12.70;99.90;;;;;;5036480;28;20064;-76
2022/10/09 09:31:28;;;;;;;13.35;8.05;;;12.70;99.90;;;;;;5056898;28;20310;-77
2022/10/09 09:34:04;;;;;;;11.88;7.65;;;12.80;99.90;;;;;;5051284;28;20032;-77
2022/10/09 09:36:34;;;;;;;11.65;8.20;;;12.80;99.90;;;;;;5042135;28;20036;-78
2022/10/09 09:39:00;;;;;;;14.00;8.23;;;12.90;99.90;;;;;;5049440;28;20135;-77
2022/10/09 09:41:27;;;;;;;12.93;8.02;;;12.90;99.90;;;;;;5057822;28;20128;-77
2022/10/09 09:44:00;;;;;;;10.38;6.97;;;13.00;99.90;;;;;;5014795;28;20041;-76
2022/10/09 09:46:29;;;;;;;10.85;6.82;;;12.90;99.90;;;;;;5035835;28;20090;-77
2022/10/09 09:48:55;;;;;;;10.90;6.30;;;13.00;99.90;;;;;;5053877;28;20047;-77
2022/10/09 09:51:29;;;;;;;11.95;6.63;;;13.00;99.90;;;;;;5036822;28;20409;-77
2022/10/09 09:53:56;;;;;;;10.57;5.63;;;13.10;99.90;;;;;;5060208;28;20036;-77
2022/10/09 09:56:40;;;;;;;9.07;5.22;;;13.20;99.90;;;;;;5068538;28;20044;-77
2022/10/09 09:59:07;;;;;;;10.63;4.32;;;13.20;99.90;;;;;;5047605;28;20384;-78
2022/10/09 10:01:34;;;;;;;11.63;4.70;;;13.30;99.90;;;;;;5052664;28;20044;-77
2022/10/09 10:04:03;;;;;;;12.02;5.15;;;13.30;99.90;;;;;;5051996;28;20037;-77
2022/10/09 10:06:42;;;;;;;13.05;4.32;;;13.30;99.90;;;;;;5047530;28;20072;-76
2022/10/09 10:09:17;;;;;;;10.27;4.18;;;13.30;99.90;;;;;;5053215;28;20530;-78
2022/10/09 10:11:58;;;;;;;10.65;4.22;;;13.40;99.90;;;;;;5055859;28;20046;-77
2022/10/09 10:14:25;;;;;;;9.88;4.53;;;13.50;99.90;;;;;;5048632;28;20040;-76
2022/10/09 10:16:54;;;;;;;10.85;4.78;;;13.50;99.90;;;;;;5051272;28;21135;-78
2022/10/09 10:19:28;;;;;;;10.90;4.00;;;13.60;99.90;;;;;;5054185;28;20053;-78
2022/10/09 10:22:19;;;;;;;12.18;3.85;;;13.60;99.90;;;;;;5073065;28;20555;-77
2022/10/09 10:24:47;;;;;;;8.30;3.10;;;13.60;99.90;;;;;;5057855;28;20032;-78
2022/10/09 10:27:32;;;;;;;10.27;3.00;;;13.70;99.90;;;;;;5057756;28;20052;-76
2022/10/09 10:30:01;;;;;;;7.78;2.70;;;13.80;99.90;;;;;;5057435;28;20052;-76
2022/10/09 10:32:51;;;;;;;9.07;3.40;;;13.80;99.90;;;;;;5041293;28;20049;-76
2022/10/09 10:35:22;;;;;;;9.07;2.72;;;13.80;99.90;;;;;;5056172;28;20052;-77
2022/10/09 10:38:14;;;;;;;11.52;3.83;;;13.80;99.90;;;;;;5055315;28;20040;-76
2022/10/09 10:40:55;;;;;;;9.20;3.00;;;13.90;99.90;;;;;;5057394;28;20041;-77
2022/10/09 10:43:24;;;;;;;9.80;2.90;;;14.00;99.90;;;;;;5052802;28;20053;-77
2022/10/09 10:46:21;;;;;;;8.00;2.83;;;14.10;99.90;;;;;;5041485;28;20044;-76
2022/10/09 10:48:47;;;;;;;7.47;2.70;;;14.20;99.90;;;;;;5058883;28;20165;-77
2022/10/09 10:51:16;;;;;;;6.75;2.30;;;14.20;99.90;;;;;;5057285;28;20526;-77
2022/10/09 10:54:02;;;;;;;7.95;2.53;;;14.20;99.90;;;;;;5042483;28;20086;-79
2022/10/09 10:56:34;;;;;;;10.25;3.20;;;14.20;99.90;;;;;;5062252;28;20044;-77
2022/10/09 10:59:19;;;;;;;7.60;2.67;;;14.20;99.90;;;;;;5044426;28;20540;-77
2022/10/09 11:01:51;;;;;;;8.65;3.20;;;14.20;99.90;;;;;;5060138;28;20051;-77
2022/10/09 11:04:42;;;;;;;8.20;2.95;;;14.20;99.90;;;;;;5056455;28;20036;-77
2022/10/09 11:07:14;;;;;;;8.52;3.55;;;14.30;99.90;;;;;;5060802;28;20041;-77
2022/10/09 11:09:58;;;;;;;8.80;2.95;;;14.30;99.90;;;;;;5050366;28;20135;-76
2022/10/09 11:12:39;;;;;;;6.35;3.10;;;14.40;99.90;;;;;;5059227;28;20045;-77
2022/10/09 11:15:20;;;;;;;8.57;3.55;;;14.50;99.90;;;;;;5061004;28;20056;-77
2022/10/09 11:18:10;;;;;;;8.73;3.95;;;14.50;99.90;;;;;;5063755;28;20040;-77
2022/10/09 11:21:02;;;;;;;9.80;4.18;;;14.40;99.90;;;;;;5058990;28;20170;-76
2022/10/09 11:23:38;;;;;;;10.23;3.55;;;14.50;99.90;;;;;;5059722;28;20093;-77
2022/10/09 11:26:33;;;;;;;9.48;3.67;;;14.50;99.90;;;;;;5060531;28;20121;-78
2022/10/09 11:29:28;;;;;;;9.85;3.10;;;14.60;99.90;;;;;;4995444;28;20093;-77
2022/10/09 11:31:57;;;;;;;8.50;3.28;;;14.60;99.90;;;;;;5056524;28;20043;-77
2022/10/09 11:34:34;;;;;;;8.85;3.17;;;14.70;99.90;;;;;;5055836;28;20055;-77
2022/10/09 11:37:01;;;;;;;7.63;3.00;;;14.80;99.90;;;;;;5041185;28;20052;-77
2022/10/09 11:39:31;;;;;;;9.90;3.13;;;14.80;99.90;;;;;;5043272;28;20507;-77
2022/10/09 11:41:58;;;;;;;8.98;3.45;;;14.80;99.90;;;;;;5062323;28;20411;-78
2022/10/09 11:44:47;;;;;;;9.40;3.60;;;14.80;99.90;;;;;;5056897;28;20079;-77
2022/10/09 11:47:16;;;;;;;10.55;3.50;;;14.90;99.90;;;;;;5063662;28;20048;-76
2022/10/09 11:50:30;;;;;;;7.07;3.17;;;15.00;99.90;;;;;;5043554;28;20385;-77
2022/10/09 11:53:17;;;;;;;8.43;3.25;;;15.10;99.90;;;;;;5051607;28;20044;-77
2022/10/09 11:55:43;;;;;;;7.05;3.05;;;15.10;99.90;;;;;;5043324;28;20166;-78
2022/10/09 11:58:15;;;;;;;8.00;3.25;;;15.20;99.90;;;;;;5038346;28;20503;-77
2022/10/09 12:00:42;;;;;;;9.05;3.05;;;15.20;99.90;;;;;;5062626;28;20177;-76
2022/10/09 12:03:33;;;;;;;10.00;3.55;;;15.30;99.90;;;;;;5073307;28;20414;-76
2022/10/09 12:06:07;;;;;;;10.40;4.10;;;15.30;99.90;;;;;;5075016;28;20126;-77
2022/10/09 12:08:33;;;;;;;12.50;4.78;;;15.30;99.90;;;;;;5059845;28;20494;-76
2022/10/09 12:11:15;;;;;;;10.38;4.47;;;15.40;99.90;;;;;;5060896;28;20048;-77
2022/10/09 12:13:50;;;;;;;9.05;3.80;;;15.40;99.90;;;;;;5063103;28;20161;-76
2022/10/09 12:16:40;;;;;;;10.02;4.28;;;15.50;99.90;;;;;;5054524;28;20056;-77
2022/10/09 12:19:22;;;;;;;8.13;3.55;;;15.50;99.90;;;;;;5040603;28;20135;-77
2022/10/09 12:21:56;;;;;;;10.48;3.83;;;15.60;99.90;;;;;;5061861;28;20101;-77
2022/10/09 12:24:26;;;;;;;9.98;4.63;;;15.70;99.90;;;;;;5058823;28;20056;-77
2022/10/09 12:26:55;;;;;;;11.82;4.85;;;15.80;99.90;;;;;;5061619;28;20109;-76
2022/10/09 12:29:33;;;;;;;9.32;4.72;;;15.80;99.90;;;;;;5046314;28;20044;-78
2022/10/09 12:32:05;;;;;;;10.63;4.80;;;15.80;99.90;;;;;;5062035;28;20059;-77
2022/10/09 12:34:36;;;;;;;11.23;4.78;;;15.80;99.90;;;;;;5040829;28;20048;-77
2022/10/09 12:37:11;;;;;;;8.05;4.10;;;15.70;99.90;;;;;;5047065;28;20494;-77
2022/10/09 12:39:37;;;;;;;9.35;4.45;;;15.70;99.90;;;;;;5059699;28;20115;-78
2022/10/09 12:42:04;;;;;;;9.55;4.40;;;15.80;99.90;;;;;;5036049;28;20056;-76
2022/10/09 12:44:34;;;;;;;9.68;4.32;;;15.80;99.90;;;;;;5026990;28;20102;-77
2022/10/09 12:47:04;;;;;;;9.85;4.95;;;15.80;99.90;;;;;;5041053;28;20040;-77
2022/10/09 12:49:30;;;;;;;10.90;5.65;;;15.70;99.90;;;;;;5039754;28;20052;-77
2022/10/09 12:51:58;;;;;;;12.75;5.13;;;15.70;99.90;;;;;;5047533;28;20033;-76
2022/10/09 12:54:26;;;;;;;14.70;4.75;;;15.70;99.90;;;;;;5072933;28;20051;-76
2022/10/09 12:56:54;;;;;;;11.32;4.32;;;15.70;99.90;;;;;;5056593;28;20049;-78
2022/10/09 12:59:26;;;;;;;13.15;4.82;;;15.70;99.90;;;;;;5041514;28;20068;-77
2022/10/09 13:01:57;;;;;;;10.32;4.88;;;15.70;99.90;;;;;;5061260;28;20776;-76